Time;durP1;ratioP1;P1;durP2;ratioP2;P2;SDS_P1;SDS_P2;PMS_P1;PMS_P2;Temp;Humidity;BMP_temperature;BMP_pressure;BME280_temperature;BME280_humidity;BME280_pressure;Samples;Min_cycle;Max_cycle;Signal;HPM_P1;HPM_P2
2023/05/03 00:02:13;;;;;;;5.88;3.00;;;;;;;16.78;46.83;98992.78;5091995;28;20475;-48
2023/05/03 00:04:40;;;;;;;7.53;2.95;;;;;;;16.60;47.18;98993.75;5090773;28;20544;-49
2023/05/03 00:07:06;;;;;;;9.40;3.20;;;;;;;16.46;47.46;98993.19;5090679;28;20103;-49
2023/05/03 00:09:35;;;;;;;8.10;3.50;;;;;;;16.32;47.95;98989.16;5090729;28;20474;-48
2023/05/03 00:12:01;;;;;;;6.65;3.00;;;;;;;16.26;48.09;99000.63;5091845;28;20024;-48
2023/05/03 00:14:27;;;;;;;11.20;3.30;;;;;;;16.38;48.13;98996.19;5092150;28;20035;-48
2023/05/03 00:16:52;;;;;;;6.95;2.88;;;;;;;16.50;48.11;98996.97;5091925;28;20036;-48
2023/05/03 00:19:18;;;;;;;7.07;4.05;;;;;;;16.57;48.09;99002.94;5090527;28;20020;-49
2023/05/03 00:21:45;;;;;;;6.80;3.88;;;;;;;16.55;47.86;98998.94;5092798;28;20081;-50
2023/05/03 00:24:11;;;;;;;22.42;9.15;;;;;;;16.45;48.36;99004.81;5096061;28;20020;-49
2023/05/03 00:26:36;;;;;;;9.93;3.78;;;;;;;16.43;47.88;99001.59;5096024;28;20389;-49
2023/05/03 00:29:02;;;;;;;12.27;3.28;;;;;;;16.36;48.00;98999.06;5095737;28;20036;-48
2023/05/03 00:31:28;;;;;;;6.20;3.50;;;;;;;16.45;48.36;99004.00;5094557;28;20367;-49
2023/05/03 00:33:53;;;;;;;4.78;2.65;;;;;;;16.45;47.92;98994.22;5094929;28;20024;-48
2023/05/03 00:36:19;;;;;;;7.05;2.75;;;;;;;16.39;47.81;98989.84;5094506;28;20047;-49
2023/05/03 00:38:45;;;;;;;5.45;3.10;;;;;;;16.30;47.84;98991.22;5094531;28;20080;-49
2023/05/03 00:41:11;;;;;;;7.78;3.10;;;;;;;16.17;48.09;98994.88;5077568;28;20111;-49
2023/05/03 00:43:38;;;;;;;10.18;3.88;;;;;;;16.13;48.57;98991.09;5094533;28;20019;-49
2023/05/03 00:46:05;;;;;;;6.97;2.95;;;;;;;16.15;48.29;98989.81;5095711;28;20024;-49
2023/05/03 00:48:32;;;;;;;12.27;3.38;;;;;;;16.15;48.18;98989.00;5094356;28;20078;-48
2023/05/03 00:50:59;;;;;;;8.82;2.90;;;;;;;16.15;48.21;98987.16;5094221;28;20024;-49
2023/05/03 00:53:26;;;;;;;7.05;3.22;;;;;;;16.14;48.33;98985.56;5095497;28;20024;-48
2023/05/03 00:55:52;;;;;;;12.90;4.40;;;;;;;16.08;48.36;98977.75;5095522;28;20036;-49
2023/05/03 00:58:20;;;;;;;3.90;2.95;;;;;;;16.14;48.48;98979.47;5095395;28;20027;-48
2023/05/03 01:00:47;;;;;;;9.27;3.30;;;;;;;16.27;48.23;98975.78;5094090;28;20035;-49
2023/05/03 01:03:13;;;;;;;5.50;3.03;;;;;;;16.19;47.88;98971.63;5077206;28;20397;-49
2023/05/03 01:05:54;;;;;;;8.02;2.85;;;;;;;16.06;48.49;98971.88;5095313;28;20023;-48
2023/05/03 01:08:37;;;;;;;7.30;2.90;;;;;;;16.09;48.41;98974.03;5094285;28;20043;-48
2023/05/03 01:11:11;;;;;;;8.95;3.03;;;;;;;16.13;48.22;98972.56;5095145;28;20020;-49
2023/05/03 01:13:55;;;;;;;5.97;2.83;;;;;;;16.07;48.29;98976.13;5095260;28;20040;-48
2023/05/03 01:16:35;;;;;;;8.55;2.50;;;;;;;15.93;48.63;98973.66;5093760;28;20031;-48
2023/05/03 01:19:12;;;;;;;8.55;2.85;;;;;;;15.85;48.67;98975.84;5095122;28;20071;-48
2023/05/03 01:21:41;;;;;;;4.05;2.90;;;;;;;15.88;48.73;98975.41;5093731;28;20150;-48
2023/05/03 01:24:12;;;;;;;10.80;3.25;;;;;;;15.90;48.85;98970.69;5094929;28;20058;-49
2023/05/03 01:26:38;;;;;;;9.20;3.05;;;;;;;15.89;48.67;98977.00;5094949;28;20149;-49
2023/05/03 01:29:04;;;;;;;9.10;2.85;;;;;;;15.96;48.50;98969.78;5094608;28;20045;-49
2023/05/03 01:31:32;;;;;;;8.32;3.20;;;;;;;15.89;48.49;98969.88;5094718;28;20147;-49
2023/05/03 01:34:16;;;;;;;7.25;2.75;;;;;;;15.81;48.87;98961.47;5094367;28;20023;-49
2023/05/03 01:36:43;;;;;;;7.90;3.10;;;;;;;15.73;48.97;98965.25;5094758;28;20047;-49
2023/05/03 01:39:32;;;;;;;5.32;2.78;;;;;;;15.66;49.36;98961.88;5076492;28;20114;-48
2023/05/03 01:42:00;;;;;;;5.55;2.92;;;;;;;15.57;49.42;98964.84;5054233;28;20040;-48
2023/05/03 01:44:26;;;;;;;5.60;3.65;;;;;;;15.57;49.50;98967.50;5094573;28;20031;-49
2023/05/03 01:46:52;;;;;;;8.93;3.13;;;;;;;15.62;49.67;98964.16;5094482;28;20031;-49
2023/05/03 01:49:17;;;;;;;6.85;3.20;;;;;;;15.69;49.30;98974.63;5094725;28;20032;-49
2023/05/03 01:51:43;;;;;;;7.32;3.42;;;;;;;15.72;49.47;98971.56;5094445;28;20099;-49
2023/05/03 01:54:08;;;;;;;6.57;2.70;;;;;;;15.82;49.14;98965.75;5094373;28;20070;-49
2023/05/03 01:56:35;;;;;;;9.65;3.30;;;;;;;15.78;49.08;98973.31;5094366;28;20028;-48
2023/05/03 01:59:02;;;;;;;5.88;3.17;;;;;;;15.75;49.18;98979.88;5094259;28;20016;-48
2023/05/03 02:01:28;;;;;;;6.40;2.90;;;;;;;15.64;49.05;98980.63;5094501;28;20169;-49
2023/05/03 02:03:53;;;;;;;8.70;3.55;;;;;;;15.44;49.26;98988.81;5092892;28;20024;-49
2023/05/03 02:06:19;;;;;;;7.72;3.33;;;;;;;15.09;49.68;98992.13;5092810;28;20024;-49
2023/05/03 02:08:45;;;;;;;5.97;2.95;;;;;;;14.81;50.35;98984.72;5092811;28;20048;-49
2023/05/03 02:11:10;;;;;;;8.85;4.10;;;;;;;14.62;50.81;98991.03;5093906;28;20107;-49
2023/05/03 02:13:38;;;;;;;8.35;3.90;;;;;;;14.56;51.08;98998.78;5092817;28;20113;-48
2023/05/03 02:16:04;;;;;;;15.35;10.70;;;;;;;14.52;51.38;98999.41;5094151;28;20027;-48
2023/05/03 02:18:30;;;;;;;9.45;3.97;;;;;;;14.47;51.55;99000.06;5093918;28;20020;-49
2023/05/03 02:20:56;;;;;;;8.85;3.55;;;;;;;14.38;51.55;99007.44;5093886;28;20401;-49
2023/05/03 02:23:22;;;;;;;10.43;4.13;;;;;;;14.22;52.18;99005.34;5059194;28;20120;-49
2023/05/03 02:25:48;;;;;;;5.45;4.15;;;;;;;13.98;52.89;99013.06;5092532;28;20110;-49
2023/05/03 02:28:14;;;;;;;17.02;3.88;;;;;;;13.69;53.75;99011.84;5093509;28;20107;-49
2023/05/03 02:30:41;;;;;;;8.10;3.47;;;;;;;13.59;53.86;99011.50;5093673;28;20111;-49
2023/05/03 02:33:06;;;;;;;13.90;4.35;;;;;;;13.47;54.52;99013.19;5093655;28;20026;-49
2023/05/03 02:35:32;;;;;;;6.03;4.60;;;;;;;13.27;55.56;99010.59;5092339;28;20110;-49
2023/05/03 02:37:58;;;;;;;6.65;3.85;;;;;;;13.04;55.75;99005.81;5092237;28;20082;-49
2023/05/03 02:40:24;;;;;;;5.65;3.33;;;;;;;12.95;55.78;98999.97;5092126;28;20039;-48
2023/05/03 02:42:50;;;;;;;9.98;4.63;;;;;;;12.91;56.34;98991.69;5093507;28;20024;-49
2023/05/03 02:45:16;;;;;;;14.00;4.38;;;;;;;12.99;56.53;99003.81;5091179;28;20032;-49
2023/05/03 02:47:42;;;;;;;7.25;3.30;;;;;;;13.10;56.38;99003.19;5092103;28;20020;-48
2023/05/03 02:50:08;;;;;;;9.43;3.88;;;;;;;13.19;56.04;99006.38;5093261;28;20024;-48
2023/05/03 02:52:34;;;;;;;14.85;4.10;;;;;;;13.23;55.82;99004.13;5091950;28;20412;-48
2023/05/03 02:55:00;;;;;;;8.93;3.67;;;;;;;13.24;55.94;99001.31;5093256;28;20035;-48
2023/05/03 02:57:25;;;;;;;13.65;3.85;;;;;;;13.22;55.97;98995.44;5093402;28;20112;-49
2023/05/03 02:59:51;;;;;;;13.45;4.25;;;;;;;13.14;56.02;98998.31;5091796;28;20056;-48
2023/05/03 03:02:17;;;;;;;5.82;4.15;;;;;;;12.73;57.06;99009.97;5093122;28;20028;-48
2023/05/03 03:04:42;;;;;;;7.45;4.78;;;;;;;12.51;57.86;99006.75;5091719;28;20184;-51
2023/05/03 03:07:08;;;;;;;7.50;4.18;;;;;;;12.38;58.28;98999.69;5092965;28;20027;-51
2023/05/03 03:09:34;;;;;;;9.70;4.68;;;;;;;12.15;58.62;99002.72;5091663;28;20036;-51
2023/05/03 03:12:04;;;;;;;7.80;4.90;;;;;;;12.03;59.36;99006.97;5092793;28;20027;-51
2023/05/03 03:14:29;;;;;;;10.52;6.05;;;;;;;11.96;60.30;99002.53;5091576;28;20028;-51
2023/05/03 03:16:55;;;;;;;9.23;5.00;;;;;;;11.87;60.94;99000.25;5092768;28;20050;-51
2023/05/03 03:19:21;;;;;;;11.05;4.28;;;;;;;11.90;60.89;98995.44;5092763;28;20115;-51
2023/05/03 03:21:47;;;;;;;7.45;4.30;;;;;;;11.92;60.39;98990.78;5092763;28;20027;-50
2023/05/03 03:24:13;;;;;;;9.15;4.25;;;;;;;11.89;60.66;98991.22;5092733;28;20089;-51
2023/05/03 03:26:38;;;;;;;6.35;4.15;;;;;;;11.88;60.60;98984.28;5091484;28;20127;-51
2023/05/03 03:29:04;;;;;;;15.35;4.63;;;;;;;11.71;61.05;98994.41;5092363;28;20135;-51
2023/05/03 03:31:31;;;;;;;7.85;4.97;;;;;;;11.51;61.89;98991.72;5092346;28;20055;-51
2023/05/03 03:33:57;;;;;;;10.60;4.40;;;;;;;11.51;62.18;98983.84;5092539;28;20469;-51
2023/05/03 03:36:23;;;;;;;17.67;4.53;;;;;;;11.54;61.98;98990.50;5092453;28;20751;-50
2023/05/03 03:38:48;;;;;;;5.97;4.35;;;;;;;11.50;62.21;98984.84;5091218;28;20175;-50
2023/05/03 03:41:14;;;;;;;8.23;4.72;;;;;;;11.39;62.03;98982.78;5092361;28;20048;-51
2023/05/03 03:43:40;;;;;;;9.80;4.68;;;;;;;11.25;62.66;98984.56;5092296;28;20027;-50
2023/05/03 03:46:05;;;;;;;8.07;4.35;;;;;;;11.16;62.90;98983.13;5092231;28;20543;-51
2023/05/03 03:48:34;;;;;;;13.27;4.43;;;;;;;11.13;63.35;98979.06;5092300;28;20020;-51
2023/05/03 03:50:59;;;;;;;10.63;4.22;;;;;;;11.28;63.49;98975.47;5092207;28;20052;-51
2023/05/03 03:53:25;;;;;;;8.60;4.18;;;;;;;11.40;63.15;98977.31;5092206;28;20047;-51
2023/05/03 03:55:51;;;;;;;9.20;4.55;;;;;;;11.47;62.75;98976.53;5090674;28;20055;-50
2023/05/03 03:58:16;;;;;;;19.13;5.35;;;;;;;11.50;62.56;98979.56;5090843;28;20032;-50
2023/05/03 04:00:42;;;;;;;18.58;6.53;;;;;;;11.31;62.74;98977.72;5092085;28;20453;-50
2023/05/03 04:03:08;;;;;;;8.80;4.43;;;;;;;11.28;62.74;98978.09;5092037;28;20103;-50
2023/05/03 04:05:34;;;;;;;15.70;4.72;;;;;;;11.28;63.13;98978.91;5090763;28;20563;-50
2023/05/03 04:07:59;;;;;;;13.23;5.28;;;;;;;11.45;63.04;98983.78;5092189;28;20023;-51
2023/05/03 04:10:25;;;;;;;7.78;4.53;;;;;;;11.54;62.92;98982.63;5091864;28;20024;-50
2023/05/03 04:12:51;;;;;;;10.13;4.63;;;;;;;11.45;62.34;98978.53;5091952;28;20070;-50
2023/05/03 04:15:16;;;;;;;9.10;4.95;;;;;;;11.26;62.55;98983.53;5091858;28;20064;-50
2023/05/03 04:17:42;;;;;;;8.57;4.82;;;;;;;10.93;63.06;98988.69;5090640;28;20020;-50
2023/05/03 04:20:09;;;;;;;7.53;4.40;;;;;;;10.65;64.26;98984.28;5090501;28;20027;-50
2023/05/03 04:22:38;;;;;;;9.30;4.80;;;;;;;10.66;64.37;98971.97;5092156;28;20020;-51
2023/05/03 04:25:06;;;;;;;12.18;5.35;;;;;;;10.71;64.34;98980.09;5091782;28;20395;-50
2023/05/03 04:27:33;;;;;;;10.52;8.02;;;;;;;10.64;64.64;98981.84;5090512;28;20051;-50
2023/05/03 04:29:59;;;;;;;8.00;5.32;;;;;;;10.70;64.73;98978.47;5090265;28;20051;-50
2023/05/03 04:32:25;;;;;;;7.70;4.80;;;;;;;10.74;64.79;98977.06;5091587;28;20405;-50
2023/05/03 04:34:53;;;;;;;9.98;4.55;;;;;;;10.80;64.78;98981.53;5090435;28;20032;-50
2023/05/03 04:37:21;;;;;;;15.77;5.90;;;;;;;10.96;64.44;98977.78;5090362;28;20097;-50
2023/05/03 04:39:47;;;;;;;10.48;4.80;;;;;;;10.97;63.83;98969.72;5091744;28;20394;-50
2023/05/03 04:42:14;;;;;;;12.80;5.40;;;;;;;10.87;64.22;98982.38;5090354;28;20497;-51
2023/05/03 04:44:41;;;;;;;15.95;5.18;;;;;;;10.88;64.75;98976.13;5091610;28;20028;-51
2023/05/03 04:47:07;;;;;;;9.20;4.47;;;;;;;11.16;64.31;98977.84;5091650;28;20027;-51
2023/05/03 04:49:33;;;;;;;12.82;5.20;;;;;;;11.41;63.46;98975.53;5091652;28;20020;-51
2023/05/03 04:51:59;;;;;;;13.30;4.40;;;;;;;11.89;62.41;98974.59;5090135;28;20012;-50
2023/05/03 04:54:25;;;;;;;12.18;4.30;;;;;;;12.84;59.62;98976.91;5090201;28;20026;-50
2023/05/03 04:56:55;;;;;;;18.52;5.05;;;;;;;13.66;56.58;98977.16;5091515;28;20114;-51
2023/05/03 04:59:21;;;;;;;13.20;5.07;;;;;;;14.30;54.26;98968.13;5091631;28;20020;-51
2023/05/03 05:01:47;;;;;;;13.63;5.30;;;;;;;14.82;53.18;98973.13;5091477;28;20405;-51
2023/05/03 05:04:12;;;;;;;11.65;5.13;;;;;;;15.32;51.27;98980.84;5091345;28;20073;-51
2023/05/03 05:06:41;;;;;;;13.02;4.75;;;;;;;15.88;49.23;98973.56;5091504;28;20016;-49
2023/05/03 05:09:19;;;;;;;13.13;4.40;;;;;;;16.21;48.63;98974.06;5094602;28;20390;-48
2023/05/03 05:11:45;;;;;;;25.77;14.80;;;;;;;16.60;47.71;98972.56;5093924;28;20032;-49
2023/05/03 05:14:11;;;;;;;8.05;7.25;;;;;;;17.23;47.08;98984.19;5093815;28;20027;-48
2023/05/03 05:16:37;;;;;;;13.20;4.47;;;;;;;17.79;44.71;98981.75;5093822;28;20031;-49
2023/05/03 05:19:02;;;;;;;10.02;5.75;;;;;;;17.71;44.32;98974.16;5095041;28;20097;-49
2023/05/03 05:21:28;;;;;;;14.77;8.80;;;;;;;17.57;44.66;98985.09;5094930;28;20040;-48
2023/05/03 05:23:54;;;;;;;7.93;4.35;;;;;;;17.56;44.56;98980.78;5093730;28;20039;-48
2023/05/03 05:26:20;;;;;;;8.63;4.43;;;;;;;17.44;44.96;98989.88;5094877;28;20024;-48
2023/05/03 05:28:45;;;;;;;8.48;4.13;;;;;;;17.20;44.69;98989.16;5094692;28;20131;-48
2023/05/03 05:31:12;;;;;;;12.15;7.95;;;;;;;16.97;45.11;98993.50;5093448;28;20081;-48
2023/05/03 05:33:37;;;;;;;7.25;4.40;;;;;;;17.18;44.73;99000.00;5093483;28;20070;-48
2023/05/03 05:36:04;;;;;;;13.43;6.45;;;;;;;17.62;43.94;99002.94;5094690;28;20024;-48
2023/05/03 05:38:30;;;;;;;12.20;5.43;;;;;;;18.25;43.18;99000.28;5094644;28;20055;-48
2023/05/03 05:40:56;;;;;;;17.15;11.75;;;;;;;18.88;41.76;98993.75;5094584;28;20054;-48
2023/05/03 05:43:22;;;;;;;17.23;7.47;;;;;;;19.89;40.44;98999.63;5093205;28;20081;-48
2023/05/03 05:45:48;;;;;;;14.05;5.63;;;;;;;20.99;38.40;99003.53;5093279;28;20024;-48
2023/05/03 05:48:14;;;;;;;11.75;4.75;;;;;;;21.91;36.83;98998.41;5094527;28;20024;-48
2023/05/03 05:50:40;;;;;;;16.77;6.82;;;;;;;22.92;35.17;99001.22;5093025;28;20056;-46
2023/05/03 05:53:07;;;;;;;30.30;13.35;;;;;;;23.85;33.50;98999.69;5093367;28;20490;-47
2023/05/03 05:55:34;;;;;;;12.85;4.82;;;;;;;24.39;32.30;99005.91;5094320;28;20523;-46
2023/05/03 05:58:00;;;;;;;31.00;8.95;;;;;;;25.01;31.85;99007.94;5094492;28;20580;-46
2023/05/03 06:00:25;;;;;;;38.08;13.70;;;;;;;25.67;30.70;99004.34;5094238;28;20024;-47
2023/05/03 06:02:51;;;;;;;13.15;6.75;;;;;;;26.26;29.73;98998.63;5093124;28;20028;-46
2023/05/03 06:05:17;;;;;;;18.33;6.80;;;;;;;26.83;29.36;99003.78;5094411;28;20027;-46
2023/05/03 06:07:43;;;;;;;25.40;10.13;;;;;;;27.30;28.57;98999.03;5092822;28;20102;-46
2023/05/03 06:10:09;;;;;;;24.08;13.13;;;;;;;27.76;28.05;98997.97;5094251;28;20031;-46
2023/05/03 06:12:35;;;;;;;15.52;8.15;;;;;;;28.17;27.66;99001.59;5092683;28;20016;-47
2023/05/03 06:15:02;;;;;;;16.23;7.10;;;;;;;28.54;26.74;98988.78;5094278;28;20051;-46
2023/05/03 06:17:28;;;;;;;30.73;11.18;;;;;;;28.89;26.48;98992.38;5092938;28;20139;-47
2023/05/03 06:19:53;;;;;;;15.13;6.30;;;;;;;28.70;25.62;98986.47;5092648;28;20107;-46
2023/05/03 06:22:19;;;;;;;12.07;5.65;;;;;;;27.93;26.49;98991.13;5092438;28;20047;-47
2023/05/03 06:24:45;;;;;;;11.43;6.07;;;;;;;27.69;27.05;98984.13;5092554;28;20035;-46
2023/05/03 06:27:10;;;;;;;23.00;8.32;;;;;;;27.90;26.62;98981.75;5092442;28;20119;-46
2023/05/03 06:29:36;;;;;;;11.07;5.30;;;;;;;28.58;25.53;98974.34;5093526;28;20085;-46
2023/05/03 06:32:02;;;;;;;11.38;5.13;;;;;;;29.11;24.94;98975.28;5093507;28;20035;-46
2023/05/03 06:34:28;;;;;;;17.52;5.13;;;;;;;29.49;24.42;98985.47;5092358;28;20032;-46
2023/05/03 06:36:54;;;;;;;11.13;5.35;;;;;;;29.73;23.83;98984.22;5093598;28;20393;-46
2023/05/03 06:39:19;;;;;;;12.13;5.38;;;;;;;29.81;23.85;98986.13;5093533;28;20090;-46
2023/05/03 06:41:45;;;;;;;19.10;7.05;;;;;;;29.95;23.83;98981.31;5093454;28;20464;-46
2023/05/03 06:44:11;;;;;;;9.68;5.57;;;;;;;30.18;23.43;98991.94;5092106;28;20024;-46
2023/05/03 06:46:37;;;;;;;9.75;5.55;;;;;;;30.41;23.44;98982.47;5093415;28;20020;-46
2023/05/03 06:49:02;;;;;;;14.23;5.47;;;;;;;30.56;23.37;98991.97;5093374;28;20020;-46
2023/05/03 06:51:29;;;;;;;9.30;5.40;;;;;;;30.54;22.73;98990.72;5093474;28;20109;-46
2023/05/03 06:53:56;;;;;;;10.65;5.80;;;;;;;30.46;23.01;98995.84;5093505;28;20020;-46
2023/05/03 06:56:23;;;;;;;9.80;5.90;;;;;;;30.11;23.38;98995.13;5091976;28;20056;-46
2023/05/03 06:58:49;;;;;;;12.13;5.78;;;;;;;30.09;23.46;98997.38;5091858;28;20109;-46
2023/05/03 07:01:16;;;;;;;7.25;5.28;;;;;;;29.87;24.13;98993.75;5091861;28;20036;-46
2023/05/03 07:03:42;;;;;;;14.25;5.68;;;;;;;29.66;24.29;98995.47;5093048;28;20111;-46
2023/05/03 07:06:07;;;;;;;12.32;5.63;;;;;;;29.44;24.71;98994.56;5092979;28;20166;-46
2023/05/03 07:08:33;;;;;;;10.20;5.60;;;;;;;29.64;24.39;98998.53;5091748;28;20035;-46
2023/05/03 07:10:58;;;;;;;10.35;6.28;;;;;;;29.59;24.47;99001.38;5093132;28;20024;-46
2023/05/03 07:13:24;;;;;;;17.20;5.82;;;;;;;29.36;24.71;98995.34;5092910;28;20020;-46
2023/05/03 07:15:50;;;;;;;11.52;5.85;;;;;;;29.30;24.91;98993.09;5092800;28;20028;-46
2023/05/03 07:18:16;;;;;;;14.00;6.00;;;;;;;29.48;24.61;98990.09;5091472;28;20028;-46
2023/05/03 07:20:41;;;;;;;20.98;7.40;;;;;;;29.68;24.49;98996.00;5074587;28;20082;-46
2023/05/03 07:23:08;;;;;;;18.33;6.10;;;;;;;30.10;24.14;98988.13;5092742;28;20020;-46
2023/05/03 07:25:33;;;;;;;16.25;6.05;;;;;;;30.70;23.54;98994.47;5092675;28;20039;-46
2023/05/03 07:28:00;;;;;;;17.55;6.60;;;;;;;30.96;22.92;98986.22;5092620;28;20036;-47
2023/05/03 07:30:25;;;;;;;23.00;6.72;;;;;;;30.55;23.80;98992.31;5091909;28;20039;-47
2023/05/03 07:32:51;;;;;;;8.93;6.13;;;;;;;31.41;22.83;98988.28;5091539;28;20028;-46
2023/05/03 07:35:18;;;;;;;11.57;5.47;;;;;;;32.21;21.77;98983.72;5092513;28;20065;-47
2023/05/03 07:37:44;;;;;;;17.15;6.38;;;;;;;32.49;21.75;98977.66;5091188;28;20020;-46
2023/05/03 07:40:10;;;;;;;15.32;5.70;;;;;;;32.22;21.40;98975.25;5092398;28;20048;-46
2023/05/03 07:42:36;;;;;;;11.38;5.95;;;;;;;32.70;21.44;98982.97;5091070;28;20043;-46
2023/05/03 07:45:02;;;;;;;8.50;6.18;;;;;;;33.17;20.86;98975.13;5092285;28;20509;-47
2023/05/03 07:47:28;;;;;;;20.13;7.10;;;;;;;33.63;20.86;98974.88;5092319;28;20020;-47
2023/05/03 07:49:54;;;;;;;10.68;6.03;;;;;;;33.86;20.31;98974.31;5092202;28;20035;-47
2023/05/03 07:52:20;;;;;;;15.00;5.95;;;;;;;34.10;20.13;98967.94;5092125;28;20020;-46
2023/05/03 07:54:46;;;;;;;17.90;7.05;;;;;;;34.27;20.10;98974.97;5092155;28;20190;-47
2023/05/03 07:57:15;;;;;;;13.88;6.10;;;;;;;33.62;20.20;98968.66;5092111;28;20044;-46
2023/05/03 07:59:43;;;;;;;14.07;6.43;;;;;;;33.25;20.86;98964.47;5092402;28;20051;-47
2023/05/03 08:02:09;;;;;;;19.83;6.25;;;;;;;33.53;20.18;98959.81;5090781;28;20032;-47
2023/05/03 08:04:35;;;;;;;115.68;78.97;;;;;;;33.25;20.76;98961.75;5092111;28;20077;-47
2023/05/03 08:07:01;;;;;;;735.38;452.35;;;;;;;33.25;21.14;98964.47;5091891;28;20451;-47
2023/05/03 08:09:28;;;;;;;247.25;175.00;;;;;;;32.74;21.44;98967.56;5092042;28;20031;-47
2023/05/03 08:11:55;;;;;;;362.27;269.38;;;;;;;31.70;23.77;98969.56;5091892;28;20111;-47
2023/05/03 08:14:22;;;;;;;146.98;93.57;;;;;;;31.56;24.13;98959.78;5091977;28;20024;-47
2023/05/03 08:16:48;;;;;;;62.80;36.42;;;;;;;32.00;23.24;98960.16;5107734;28;20047;-47
2023/05/03 08:19:13;;;;;;;32.63;18.08;;;;;;;32.54;22.31;98955.66;5091928;28;20486;-47
2023/05/03 08:21:39;;;;;;;36.97;18.15;;;;;;;32.92;21.85;98946.38;5091915;28;20190;-47
2023/05/03 08:24:07;;;;;;;23.48;14.15;;;;;;;32.99;21.56;98952.03;5091856;28;20016;-47
2023/05/03 08:26:33;;;;;;;13.35;9.43;;;;;;;33.04;21.14;98959.94;5091762;28;20097;-47
2023/05/03 08:28:59;;;;;;;19.02;9.57;;;;;;;33.47;20.78;98965.88;5091563;28;20044;-47
2023/05/03 08:31:25;;;;;;;21.25;11.25;;;;;;;34.12;20.37;98963.69;5091963;28;20168;-47
2023/05/03 08:33:51;;;;;;;317.98;286.48;;;;;;;34.59;19.73;98964.84;5091631;28;20035;-47
2023/05/03 08:36:17;;;;;;;1131.25;728.03;;;;;;;34.82;19.87;98956.84;5091716;28;20472;-47
2023/05/03 08:38:42;;;;;;;364.48;226.30;;;;;;;34.48;19.77;98959.16;5091638;28;20028;-47
2023/05/03 08:41:24;;;;;;;171.95;107.68;;;;;;;34.70;19.72;98957.75;5091597;28;20428;-47
2023/05/03 08:43:54;;;;;;;62.85;41.30;;;;;;;35.04;18.96;98955.38;5094479;28;20078;-47
2023/05/03 08:46:20;;;;;;;34.58;17.58;;;;;;;35.03;19.00;98950.25;5094322;28;20047;-47
2023/05/03 08:48:51;;;;;;;35.33;23.05;;;;;;;35.74;18.36;98956.41;5095628;28;20043;-47
2023/05/03 08:51:18;;;;;;;17.65;8.45;;;;;;;35.66;18.43;98954.66;5095881;28;20032;-47
2023/05/03 08:53:44;;;;;;;15.63;10.68;;;;;;;35.37;18.76;98959.56;5095574;28;20498;-47
2023/05/03 08:56:11;;;;;;;28.90;12.68;;;;;;;35.82;18.45;98951.84;5095546;28;20119;-47
2023/05/03 08:58:38;;;;;;;24.40;10.25;;;;;;;36.08;18.31;98959.31;5095778;28;20405;-47
2023/05/03 09:01:08;;;;;;;15.23;9.35;;;;;;;36.04;17.81;98964.75;5095409;28;20536;-47
2023/05/03 09:03:35;;;;;;;22.63;13.05;;;;;;;36.56;17.39;98957.78;5095393;28;20024;-47
2023/05/03 09:06:01;;;;;;;12.98;6.97;;;;;;;36.85;17.46;98966.41;5095577;28;20016;-50
2023/05/03 09:08:28;;;;;;;8.55;6.55;;;;;;;36.40;17.17;98962.59;5094310;28;20047;-50
2023/05/03 09:10:54;;;;;;;9.82;5.95;;;;;;;36.25;17.55;98971.75;5095147;28;20485;-49
2023/05/03 09:13:20;;;;;;;14.50;6.03;;;;;;;36.48;17.52;98966.22;5095480;28;20016;-50
2023/05/03 09:15:53;;;;;;;11.45;5.18;;;;;;;36.66;17.97;98970.03;5093915;28;20517;-50
2023/05/03 09:18:19;;;;;;;19.00;5.72;;;;;;;37.03;16.68;98960.38;5093959;28;20102;-50
2023/05/03 09:20:52;;;;;;;6.95;4.63;;;;;;;36.91;17.09;98953.22;5095022;28;20036;-50
2023/05/03 09:23:25;;;;;;;8.57;4.70;;;;;;;36.96;17.20;98958.34;5095048;28;20114;-50
2023/05/03 09:25:51;;;;;;;8.53;4.93;;;;;;;36.81;17.08;98957.38;5095011;28;20258;-50
2023/05/03 09:28:18;;;;;;;10.52;5.22;;;;;;;36.90;16.61;98965.31;5094672;28;20050;-50
2023/05/03 09:30:45;;;;;;;5.25;4.40;;;;;;;37.31;16.77;98958.03;5094704;28;20564;-50
2023/05/03 09:33:18;;;;;;;8.57;4.60;;;;;;;37.52;16.41;98960.22;5094701;28;20047;-50
2023/05/03 09:35:55;;;;;;;7.20;4.60;;;;;;;37.08;16.81;98955.38;5094748;28;20405;-50
2023/05/03 09:38:26;;;;;;;9.60;4.70;;;;;;;36.72;16.77;98948.66;5094626;28;20028;-50
2023/05/03 09:40:52;;;;;;;9.88;4.40;;;;;;;36.96;16.29;98950.13;5094631;28;20028;-50
2023/05/03 09:43:18;;;;;;;7.47;4.57;;;;;;;36.88;17.18;98960.19;5094625;28;20024;-50
2023/05/03 09:45:44;;;;;;;5.03;4.45;;;;;;;37.16;17.01;98962.53;5094556;28;20568;-50
2023/05/03 09:48:12;;;;;;;6.55;4.88;;;;;;;36.93;16.11;98961.84;5093527;28;20028;-50
2023/05/03 09:50:38;;;;;;;8.75;4.72;;;;;;;37.55;16.13;98961.41;5094637;28;20495;-50
2023/05/03 09:53:05;;;;;;;14.00;5.40;;;;;;;38.17;15.48;98953.47;5094516;28;20103;-50
2023/05/03 09:55:35;;;;;;;6.97;4.90;;;;;;;38.00;15.92;98951.31;5094321;28;20024;-50
2023/05/03 09:58:06;;;;;;;9.80;4.75;;;;;;;38.35;15.83;98953.59;5094440;28;20028;-50
2023/05/03 10:00:40;;;;;;;6.75;4.75;;;;;;;38.40;15.48;98946.19;5093056;28;20035;-50
2023/05/03 10:03:09;;;;;;;11.50;4.90;;;;;;;38.40;15.54;98946.97;5094191;28;20028;-50
2023/05/03 10:05:48;;;;;;;9.68;4.55;;;;;;;38.39;15.39;98950.88;5094198;28;20028;-50
2023/05/03 10:08:24;;;;;;;6.65;3.60;;;;;;;38.26;15.04;98953.13;5092873;28;20105;-50
2023/05/03 10:10:53;;;;;;;6.40;4.03;;;;;;;38.49;14.70;98949.38;5094055;28;20081;-50
2023/05/03 10:13:22;;;;;;;13.77;4.50;;;;;;;38.49;15.72;98943.88;5094068;28;20020;-50
2023/05/03 10:15:56;;;;;;;6.05;3.85;;;;;;;38.33;15.23;98947.69;5092678;28;20016;-50
2023/05/03 10:18:26;;;;;;;5.03;3.50;;;;;;;37.54;15.27;98952.41;5094032;28;20051;-50
2023/05/03 10:21:20;;;;;;;10.00;4.45;;;;;;;37.77;15.61;98946.81;5076220;28;20081;-50
2023/05/03 10:24:12;;;;;;;6.70;4.30;;;;;;;38.14;15.73;98948.72;5087650;28;20068;-50
2023/05/03 10:26:43;;;;;;;11.15;4.53;;;;;;;38.40;15.44;98946.19;5093739;28;20067;-50
2023/05/03 10:29:47;;;;;;;10.98;4.05;;;;;;;38.28;14.77;98947.28;5093594;28;20040;-50
2023/05/03 10:32:42;;;;;;;18.27;5.15;;;;;;;37.65;16.06;98949.84;5084006;28;20050;-50
2023/05/03 10:35:18;;;;;;;9.57;3.88;;;;;;;37.91;15.83;98948.09;5092459;28;20115;-50
2023/05/03 10:37:47;;;;;;;11.18;5.05;;;;;;;37.75;15.83;98945.59;5093551;28;20036;-50
2023/05/03 10:40:17;;;;;;;8.48;3.90;;;;;;;37.71;15.44;98942.03;5093743;28;20119;-50
2023/05/03 10:42:55;;;;;;;6.85;4.22;;;;;;;37.44;15.88;98942.13;5092193;28;20032;-50
2023/05/03 10:45:21;;;;;;;11.05;4.55;;;;;;;37.40;16.13;98938.56;5093483;28;20032;-50
2023/05/03 10:48:11;;;;;;;6.40;4.47;;;;;;;37.22;16.04;98930.16;5093463;28;20023;-50
2023/05/03 10:50:40;;;;;;;10.38;3.70;;;;;;;37.18;15.88;98927.38;5093280;28;20043;-50
2023/05/03 10:53:07;;;;;;;6.57;3.08;;;;;;;37.13;15.79;98924.97;5091987;28;20020;-50
2023/05/03 10:55:33;;;;;;;10.63;2.70;;;;;;;36.97;15.28;98921.63;5093264;28;20028;-50
2023/05/03 10:58:00;;;;;;;11.00;2.75;;;;;;;36.88;14.99;98918.38;5091858;28;20024;-50
2023/05/03 11:00:31;;;;;;;7.05;2.65;;;;;;;36.42;15.59;98918.50;5091786;28;20024;-50
2023/05/03 11:03:18;;;;;;;22.08;3.60;;;;;;;36.57;15.76;98925.75;5092014;28;20016;-50
2023/05/03 11:05:47;;;;;;;3.90;2.63;;;;;;;36.56;15.20;98908.56;5092263;28;20028;-50
2023/05/03 11:08:15;;;;;;;10.32;3.53;;;;;;;36.98;14.98;98920.47;5092982;28;20032;-50
2023/05/03 11:10:43;;;;;;;4.78;2.60;;;;;;;36.93;15.46;98916.09;5092860;28;20482;-50
2023/05/03 11:13:09;;;;;;;8.75;2.30;;;;;;;36.56;15.91;98914.03;5091723;28;20112;-50
2023/05/03 11:15:35;;;;;;;12.45;3.90;;;;;;;36.24;15.85;98916.28;5092821;28;20099;-50
2023/05/03 11:18:01;;;;;;;5.65;2.90;;;;;;;36.46;15.59;98906.44;5092849;28;20020;-50
2023/05/03 11:20:27;;;;;;;7.90;2.80;;;;;;;36.73;15.88;98910.00;5091490;28;20085;-50
2023/05/03 11:22:53;;;;;;;5.88;2.47;;;;;;;36.97;15.66;98897.00;5092984;28;20032;-50
2023/05/03 11:25:18;;;;;;;9.00;3.05;;;;;;;37.01;15.43;98900.56;5092740;28;20402;-50
2023/05/03 11:27:47;;;;;;;5.88;2.80;;;;;;;36.59;16.09;98912.50;5092674;28;20024;-50
2023/05/03 11:30:13;;;;;;;4.25;2.95;;;;;;;36.03;16.39;98902.25;5092335;28;20127;-50